Time;durP1;ratioP1;P1;durP2;ratioP2;P2;SDS_P1;SDS_P2;PMS_P1;PMS_P2;Temp;Humidity;BMP_temperature;BMP_pressure;BME280_temperature;BME280_humidity;BME280_pressure;Samples;Min_cycle;Max_cycle;Signal;HPM_P1;HPM_P2
2023/01/03 00:01:20;;;;;;;2.40;1.03;;;;;;;;;;4977931;28;20218;-90
2023/01/03 00:04:24;;;;;;;4.07;1.40;;;;;;;;;;4967112;28;20186;-90
2023/01/03 00:07:35;;;;;;;1.60;0.90;;;;;;;;;;4966783;28;20194;-89
2023/01/03 00:10:39;;;;;;;2.00;0.87;;;;;;;;;;4977523;28;20222;-89
2023/01/03 00:13:43;;;;;;;1.00;0.70;;;;;;;;;;4966301;28;20175;-89
2023/01/03 00:16:50;;;;;;;1.13;0.67;;;;;;;;;;4977421;28;20183;-89
2023/01/03 00:19:54;;;;;;;0.60;0.60;;;;;;;;;;4966269;28;20187;-89
2023/01/03 00:23:00;;;;;;;0.60;0.50;;;;;;;;;;4977586;28;20179;-89
2023/01/03 00:26:13;;;;;;;0.57;0.57;;;;;;;;;;4965822;28;20229;-89
2023/01/03 00:29:17;;;;;;;1.47;0.50;;;;;;;;;;4954590;28;20187;-89
2023/01/03 00:32:21;;;;;;;0.93;0.70;;;;;;;;;;4977199;28;20187;-89
2023/01/03 00:35:25;;;;;;;1.40;0.70;;;;;;;;;;4977204;28;20638;-89
2023/01/03 00:38:30;;;;;;;0.50;0.50;;;;;;;;;;4965885;28;20179;-90
2023/01/03 00:41:34;;;;;;;1.53;0.50;;;;;;;;;;4965449;28;20218;-89
2023/01/03 00:44:37;;;;;;;1.07;0.50;;;;;;;;;;4954885;28;20186;-89
2023/01/03 00:47:42;;;;;;;0.97;0.70;;;;;;;;;;4976505;28;20175;-89
2023/01/03 00:50:46;;;;;;;0.70;0.60;;;;;;;;;;4976617;28;20214;-89
2023/01/03 00:53:53;;;;;;;0.77;0.60;;;;;;;;;;4965537;28;20182;-89
2023/01/03 00:56:58;;;;;;;0.60;0.50;;;;;;;;;;4977413;28;20175;-89
2023/01/03 01:00:03;;;;;;;0.70;0.60;;;;;;;;;;4965536;28;20226;-89
2023/01/03 01:03:07;;;;;;;1.57;0.97;;;;;;;;;;4955085;28;20183;-89
2023/01/03 01:06:22;;;;;;;2.00;0.70;;;;;;;;;;4976955;28;20210;-90
2023/01/03 01:09:34;;;;;;;0.87;0.70;;;;;;;;;;4977336;28;20187;-89
2023/01/03 01:12:38;;;;;;;4.10;0.70;;;;;;;;;;4976654;28;20187;-89
2023/01/03 01:15:42;;;;;;;1.87;0.77;;;;;;;;;;4966066;28;20179;-89
2023/01/03 01:18:48;;;;;;;3.53;0.70;;;;;;;;;;4965590;28;20187;-89
2023/01/03 01:21:52;;;;;;;1.13;1.00;;;;;;;;;;4964824;28;20214;-89
2023/01/03 01:24:56;;;;;;;1.87;0.50;;;;;;;;;;4987368;28;20183;-89
2023/01/03 01:28:00;;;;;;;0.60;0.60;;;;;;;;;;4976400;28;20194;-89
2023/01/03 01:31:05;;;;;;;0.73;0.40;;;;;;;;;;4976176;28;20218;-89
2023/01/03 01:34:10;;;;;;;0.80;0.60;;;;;;;;;;4975980;28;20187;-88
2023/01/03 01:37:13;;;;;;;0.90;0.70;;;;;;;;;;4964778;28;20179;-89
2023/01/03 01:40:18;;;;;;;0.90;0.53;;;;;;;;;;4975698;28;20214;-89
2023/01/03 01:46:51;;;;;;;1.13;0.80;;;;;;;;;;4964199;28;20234;-89
2023/01/03 01:49:58;;;;;;;1.87;0.70;;;;;;;;;;4986517;28;20634;-89
2023/01/03 01:53:08;;;;;;;1.23;0.70;;;;;;;;;;4964154;28;20183;-89
2023/01/03 01:56:19;;;;;;;0.90;0.60;;;;;;;;;;4964141;28;20534;-89
2023/01/03 01:59:23;;;;;;;0.97;0.70;;;;;;;;;;4975162;28;20187;-89
2023/01/03 02:02:27;;;;;;;1.27;0.60;;;;;;;;;;4975315;28;20182;-89
2023/01/03 02:05:35;;;;;;;1.97;0.70;;;;;;;;;;4974927;28;20175;-89
2023/01/03 02:08:39;;;;;;;1.37;0.60;;;;;;;;;;4974687;28;20658;-88
2023/01/03 02:13:04;;;;;;;0.53;0.50;;;;;;;;;;4974499;28;20262;-89
2023/01/03 02:15:37;;;;;;;0.80;0.60;;;;;;;;;;4975256;28;20199;-89
2023/01/03 02:18:54;;;;;;;1.00;0.57;;;;;;;;;;4964022;28;20183;-89
2023/01/03 02:22:19;;;;;;;0.83;0.70;;;;;;;;;;4974614;28;20218;-88
2023/01/03 02:25:52;;;;;;;1.53;0.70;;;;;;;;;;4974793;28;20631;-89
2023/01/03 02:29:22;;;;;;;1.40;0.80;;;;;;;;;;4964009;28;20187;-89
2023/01/03 02:32:42;;;;;;;0.80;0.70;;;;;;;;;;4974766;28;20182;-89
2023/01/03 02:36:03;;;;;;;0.70;0.50;;;;;;;;;;4974723;28;20176;-89
2023/01/03 02:39:14;;;;;;;0.53;0.50;;;;;;;;;;4986048;28;20187;-89
2023/01/03 02:43:01;;;;;;;0.60;0.60;;;;;;;;;;4963653;28;20191;-89
2023/01/03 02:46:25;;;;;;;0.70;0.60;;;;;;;;;;4963587;28;20210;-89
2023/01/03 02:49:36;;;;;;;0.60;0.60;;;;;;;;;;4963696;28;20183;-89
2023/01/03 02:52:42;;;;;;;0.70;0.57;;;;;;;;;;4977602;28;20179;-89
2023/01/03 02:55:49;;;;;;;0.73;0.60;;;;;;;;;;4978487;28;20563;-89
2023/01/03 02:59:00;;;;;;;2.23;0.60;;;;;;;;;;4989644;28;20183;-89
2023/01/03 03:02:05;;;;;;;0.90;0.80;;;;;;;;;;4977881;28;20214;-89
2023/01/03 03:05:16;;;;;;;0.63;0.63;;;;;;;;;;4967197;28;20198;-89
2023/01/03 03:08:21;;;;;;;1.57;0.53;;;;;;;;;;4967429;28;20183;-89
2023/01/03 03:14:54;;;;;;;0.77;0.77;;;;;;;;;;4966858;28;20187;-89
2023/01/03 03:18:04;;;;;;;0.60;0.60;;;;;;;;;;4978054;28;20183;-89
2023/01/03 03:31:43;;;;;;;1.17;0.97;;;;;;;;;;4989933;28;20222;-89
2023/01/03 03:34:48;;;;;;;1.43;0.70;;;;;;;;;;4956526;28;20183;-89
2023/01/03 03:37:55;;;;;;;0.77;0.73;;;;;;;;;;4967252;28;20179;-89
2023/01/03 03:48:17;;;;;;;0.80;0.70;;;;;;;;;;4966642;28;20211;-89
2023/01/03 03:51:26;;;;;;;1.63;0.70;;;;;;;;;;4967160;28;20219;-89
2023/01/03 03:54:34;;;;;;;0.80;0.80;;;;;;;;;;4966393;28;20183;-88
2023/01/03 03:57:45;;;;;;;0.70;0.70;;;;;;;;;;4966288;28;20183;-89
2023/01/03 04:00:51;;;;;;;1.23;0.90;;;;;;;;;;4966461;28;20214;-89
2023/01/03 04:04:01;;;;;;;1.07;0.73;;;;;;;;;;4977005;28;20634;-89
2023/01/03 04:07:05;;;;;;;4.07;0.90;;;;;;;;;;4966003;28;20211;-89
2023/01/03 04:10:10;;;;;;;1.13;0.70;;;;;;;;;;4965789;28;20681;-90
2023/01/03 04:13:15;;;;;;;0.70;0.70;;;;;;;;;;4980142;28;20586;-89
2023/01/03 04:16:19;;;;;;;0.80;0.80;;;;;;;;;;4957400;29;20546;-89
2023/01/03 04:19:23;;;;;;;1.07;0.70;;;;;;;;;;4968411;28;20183;-89
2023/01/03 04:22:27;;;;;;;0.70;0.70;;;;;;;;;;4957299;29;20191;-88
2023/01/03 04:25:31;;;;;;;0.77;0.70;;;;;;;;;;4957349;29;20180;-89
2023/01/03 04:28:35;;;;;;;2.00;0.80;;;;;;;;;;4946687;29;20180;-89
2023/01/03 04:31:39;;;;;;;0.83;0.70;;;;;;;;;;4946253;29;20215;-89
2023/01/03 04:34:44;;;;;;;1.07;0.70;;;;;;;;;;4957383;29;20187;-89
2023/01/03 04:37:48;;;;;;;1.37;1.00;;;;;;;;;;4946125;29;20180;-89
2023/01/03 04:40:52;;;;;;;1.33;0.90;;;;;;;;;;4957495;29;20219;-89
2023/01/03 04:44:03;;;;;;;1.03;0.80;;;;;;;;;;4957362;29;20175;-89
2023/01/03 04:47:08;;;;;;;0.97;0.87;;;;;;;;;;4946029;29;20212;-89
2023/01/03 04:50:12;;;;;;;1.10;0.70;;;;;;;;;;4968309;28;20582;-89
2023/01/03 04:53:17;;;;;;;1.03;0.90;;;;;;;;;;4957241;29;20631;-90
2023/01/03 04:56:30;;;;;;;2.73;1.00;;;;;;;;;;4956783;29;20183;-89
2023/01/03 04:59:35;;;;;;;1.30;1.03;;;;;;;;;;4967557;28;20183;-89
2023/01/03 05:02:39;;;;;;;1.50;1.00;;;;;;;;;;4946315;29;20187;-89
2023/01/03 05:05:43;;;;;;;1.23;1.13;;;;;;;;;;4956560;29;20179;-90
2023/01/03 05:08:48;;;;;;;1.20;1.00;;;;;;;;;;4956298;29;20188;-89
2023/01/03 05:11:53;;;;;;;1.87;1.13;;;;;;;;;;4945246;29;20583;-89
2023/01/03 05:14:57;;;;;;;3.00;1.13;;;;;;;;;;4955751;28;20551;-89
2023/01/03 05:18:01;;;;;;;3.10;1.30;;;;;;;;;;4945175;29;20183;-89
2023/01/03 05:27:54;;;;;;;2.17;1.40;;;;;;;;;;4955977;29;20212;-89
2023/01/03 05:30:59;;;;;;;1.60;1.23;;;;;;;;;;4944891;29;20231;-89
2023/01/03 05:34:03;;;;;;;1.63;1.27;;;;;;;;;;4945299;29;20179;-88
2023/01/03 05:37:08;;;;;;;1.50;1.30;;;;;;;;;;4956188;29;20176;-89
2023/01/03 05:40:12;;;;;;;1.13;1.03;;;;;;;;;;4955630;29;20686;-89
2023/01/03 05:43:16;;;;;;;1.30;1.17;;;;;;;;;;4956267;29;20188;-89
2023/01/03 05:46:20;;;;;;;2.13;1.27;;;;;;;;;;4944687;29;20187;-90
2023/01/03 05:49:25;;;;;;;4.03;1.17;;;;;;;;;;4966716;28;20203;-89
2023/01/03 05:52:28;;;;;;;1.47;1.17;;;;;;;;;;4957778;29;20192;-89
2023/01/03 05:55:37;;;;;;;1.40;1.30;;;;;;;;;;4944885;29;20183;-89
2023/01/03 05:58:43;;;;;;;1.57;1.30;;;;;;;;;;4955897;29;20180;-89
2023/01/03 06:01:48;;;;;;;2.23;1.30;;;;;;;;;;4955545;29;20219;-89
2023/01/03 06:04:52;;;;;;;1.67;1.30;;;;;;;;;;4945366;29;20654;-89
2023/01/03 06:07:59;;;;;;;2.27;1.30;;;;;;;;;;4955425;29;20686;-89
2023/01/03 06:11:21;;;;;;;1.50;1.30;;;;;;;;;;4957396;29;20227;-88
2023/01/03 06:14:27;;;;;;;1.83;1.33;;;;;;;;;;4945975;29;20188;-89
2023/01/03 06:20:54;;;;;;;2.00;1.77;;;;;;;;;;4966502;28;20223;-89
2023/01/03 06:23:58;;;;;;;1.77;1.67;;;;;;;;;;4956375;29;20188;-88
2023/01/03 06:27:03;;;;;;;1.70;1.60;;;;;;;;;;4955396;28;20207;-88
2023/01/03 06:30:08;;;;;;;1.63;1.40;;;;;;;;;;4944154;29;20223;-88
2023/01/03 06:33:12;;;;;;;1.87;1.67;;;;;;;;;;4954919;29;20207;-89
2023/01/03 06:36:19;;;;;;;2.23;1.47;;;;;;;;;;4955072;29;20198;-89
2023/01/03 06:39:23;;;;;;;2.30;1.97;;;;;;;;;;4944042;29;20179;-89
2023/01/03 06:42:41;;;;;;;2.00;1.70;;;;;;;;;;4944444;29;20175;-89
2023/01/03 06:56:02;;;;;;;2.00;1.70;;;;;;;;;;4958150;29;20623;-89
2023/01/03 06:59:06;;;;;;;2.07;1.77;;;;;;;;;;4957699;29;20180;-89
2023/01/03 07:02:10;;;;;;;5.13;2.03;;;;;;;;;;4946748;29;20184;-89
2023/01/03 07:05:14;;;;;;;3.60;1.60;;;;;;;;;;4957772;29;20204;-89
2023/01/03 07:08:19;;;;;;;2.90;1.80;;;;;;;;;;4946899;29;20211;-89
2023/01/03 07:11:23;;;;;;;2.80;2.00;;;;;;;;;;4963412;29;20223;-89
2023/01/03 07:14:27;;;;;;;2.93;2.10;;;;;;;;;;4951842;29;20187;-89
2023/01/03 07:17:31;;;;;;;2.53;2.30;;;;;;;;;;4963343;29;20559;-89
2023/01/03 07:20:40;;;;;;;3.27;2.23;;;;;;;;;;4964848;29;20226;-89
2023/01/03 07:23:45;;;;;;;5.93;2.50;;;;;;;;;;4952516;29;20521;-90
2023/01/03 07:26:49;;;;;;;2.83;2.43;;;;;;;;;;4963225;29;20188;-90
2023/01/03 07:29:53;;;;;;;2.30;2.03;;;;;;;;;;4961632;29;20671;-90
2023/01/03 07:32:58;;;;;;;3.77;2.50;;;;;;;;;;4950683;29;20535;-90
2023/01/03 07:36:06;;;;;;;2.70;2.30;;;;;;;;;;4960852;29;20199;-89
2023/01/03 07:39:11;;;;;;;4.87;2.43;;;;;;;;;;4953393;29;20647;-90
2023/01/03 07:45:40;;;;;;;4.17;2.97;;;;;;;;;;4963441;29;20180;-89
2023/01/03 07:48:47;;;;;;;5.67;3.00;;;;;;;;;;4951666;29;20227;-89
2023/01/03 07:51:51;;;;;;;3.23;2.87;;;;;;;;;;4961738;29;20227;-89
2023/01/03 07:54:55;;;;;;;5.13;3.43;;;;;;;;;;4950500;29;20203;-91
2023/01/03 07:57:59;;;;;;;6.10;4.07;;;;;;;;;;4949670;29;20176;-89
2023/01/03 08:01:09;;;;;;;3.43;2.93;;;;;;;;;;4960676;29;20586;-90
2023/01/03 08:04:13;;;;;;;3.63;2.83;;;;;;;;;;4949455;29;20183;-90
2023/01/03 08:07:17;;;;;;;2.97;2.53;;;;;;;;;;4960600;29;20184;-90
2023/01/03 08:13:44;;;;;;;2.80;2.40;;;;;;;;;;4959308;29;20203;-88
2023/01/03 08:16:49;;;;;;;2.97;2.43;;;;;;;;;;4959055;29;20199;-88
2023/01/03 08:19:52;;;;;;;3.33;2.70;;;;;;;;;;4948426;29;20179;-88
2023/01/03 08:22:58;;;;;;;3.13;2.80;;;;;;;;;;4947804;29;20188;-88
2023/01/03 08:26:09;;;;;;;4.13;3.00;;;;;;;;;;4947752;29;20176;-87
2023/01/03 08:29:14;;;;;;;4.50;2.80;;;;;;;;;;4947626;29;20211;-87
2023/01/03 08:32:20;;;;;;;3.80;2.97;;;;;;;;;;4946714;29;20176;-89
2023/01/03 08:35:29;;;;;;;3.97;2.80;;;;;;;;;;4947223;29;20184;-88
2023/01/03 08:38:45;;;;;;;3.17;2.63;;;;;;;;;;4958538;29;20176;-88
2023/01/03 08:41:56;;;;;;;3.67;3.03;;;;;;;;;;4957546;29;20219;-88
2023/01/03 08:45:05;;;;;;;4.47;3.27;;;;;;;;;;4957450;29;20183;-88
2023/01/03 08:48:10;;;;;;;4.23;3.20;;;;;;;;;;4946638;29;20208;-88
2023/01/03 08:51:14;;;;;;;4.00;3.07;;;;;;;;;;4946505;29;20223;-88
2023/01/03 08:54:18;;;;;;;4.60;3.63;;;;;;;;;;4957335;29;20195;-88
2023/01/03 08:57:22;;;;;;;4.53;3.30;;;;;;;;;;4957301;29;20204;-88
2023/01/03 09:00:27;;;;;;;4.20;3.33;;;;;;;;;;4956838;29;20223;-88
2023/01/03 09:03:31;;;;;;;6.23;3.80;;;;;;;;;;4946328;29;20184;-88
2023/01/03 09:06:35;;;;;;;5.90;4.10;;;;;;;;;;4945919;29;20543;-88
2023/01/03 09:09:39;;;;;;;6.57;4.67;;;;;;;;;;4956777;29;20207;-88
2023/01/03 09:12:44;;;;;;;8.40;5.53;;;;;;;;;;4957028;29;20180;-88
2023/01/03 09:15:48;;;;;;;10.47;5.63;;;;;;;;;;4946264;29;20183;-88
2023/01/03 09:18:52;;;;;;;11.57;6.13;;;;;;;;;;4957139;29;20180;-88
2023/01/03 09:21:56;;;;;;;8.47;6.07;;;;;;;;;;4967954;28;20218;-88
2023/01/03 09:25:00;;;;;;;10.30;6.43;;;;;;;;;;4945706;29;20183;-88
2023/01/03 09:28:04;;;;;;;12.67;8.37;;;;;;;;;;4956512;29;20215;-90
2023/01/03 09:31:09;;;;;;;13.93;8.73;;;;;;;;;;4945570;29;20219;-89
2023/01/03 09:34:13;;;;;;;15.60;8.83;;;;;;;;;;4956338;29;20192;-89
2023/01/03 09:37:17;;;;;;;15.37;9.33;;;;;;;;;;4945180;29;20187;-89
2023/01/03 09:40:22;;;;;;;12.97;8.20;;;;;;;;;;4945193;29;20219;-89
2023/01/03 09:43:33;;;;;;;12.53;8.63;;;;;;;;;;4945538;29;20184;-90
2023/01/03 09:46:37;;;;;;;12.87;9.13;;;;;;;;;;4945307;29;20199;-89
2023/01/03 09:49:41;;;;;;;17.97;10.73;;;;;;;;;;4945214;29;20207;-89
2023/01/03 10:06:49;;;;;;;24.00;16.63;;;;;;;;;;4946144;29;20187;-89
2023/01/03 10:09:58;;;;;;;27.77;17.87;;;;;;;;;;4933933;29;20245;-89
2023/01/03 10:13:24;;;;;;;19.03;13.30;;;;;;;;;;4933962;29;20199;-88
2023/01/03 10:17:02;;;;;;;21.57;13.27;;;;;;;;;;4956159;29;20183;-89
2023/01/03 10:20:13;;;;;;;24.57;15.50;;;;;;;;;;4929052;29;20227;-89
2023/01/03 10:23:17;;;;;;;22.67;15.07;;;;;;;;;;4945350;29;20195;-89
2023/01/03 10:26:24;;;;;;;22.30;12.87;;;;;;;;;;4956533;29;20179;-88
2023/01/03 10:29:29;;;;;;;18.67;12.53;;;;;;;;;;4956486;29;20211;-89
2023/01/03 10:32:45;;;;;;;18.47;13.60;;;;;;;;;;4934573;29;20692;-89
2023/01/03 10:35:50;;;;;;;16.43;9.70;;;;;;;;;;4956276;29;20607;-89
2023/01/03 10:39:07;;;;;;;11.40;7.87;;;;;;;;;;4956289;29;20179;-89
2023/01/03 10:42:18;;;;;;;8.70;6.97;;;;;;;;;;4945768;29;20183;-89
2023/01/03 10:45:22;;;;;;;9.07;6.80;;;;;;;;;;4956144;29;20195;-88
2023/01/03 10:48:41;;;;;;;9.70;6.27;;;;;;;;;;4966434;28;20215;-89
2023/01/03 10:52:16;;;;;;;10.43;6.50;;;;;;;;;;4945239;29;20218;-89
2023/01/03 10:55:22;;;;;;;22.10;16.97;;;;;;;;;;4944769;29;20184;-89
2023/01/03 10:58:27;;;;;;;12.03;8.90;;;;;;;;;;4955829;29;20180;-89
2023/01/03 11:01:31;;;;;;;20.07;17.80;;;;;;;;;;4955656;29;20227;-89
2023/01/03 11:04:36;;;;;;;36.33;20.87;;;;;;;;;;4955330;29;20188;-89
2023/01/03 11:07:48;;;;;;;15.37;11.70;;;;;;;;;;4944433;29;20183;-88
2023/01/03 11:10:59;;;;;;;8.97;6.80;;;;;;;;;;4955101;29;20227;-89
2023/01/03 11:14:14;;;;;;;9.53;6.77;;;;;;;;;;4947880;29;20187;-89
2023/01/03 11:17:20;;;;;;;8.23;5.80;;;;;;;;;;4959234;29;20183;-89
2023/01/03 11:20:47;;;;;;;7.23;5.27;;;;;;;;;;4958841;29;20211;-89
2023/01/03 11:24:13;;;;;;;8.17;5.70;;;;;;;;;;4948161;29;20180;-89
2023/01/03 11:27:30;;;;;;;7.60;5.37;;;;;;;;;;4947880;29;20187;-89
2023/01/03 11:30:53;;;;;;;8.73;5.57;;;;;;;;;;4958634;29;20208;-89
2023/01/03 11:34:06;;;;;;;7.17;5.90;;;;;;;;;;4959327;29;20180;-89
2023/01/03 11:37:43;;;;;;;7.30;5.47;;;;;;;;;;4969576;28;20184;-89
2023/01/03 11:41:03;;;;;;;8.20;5.50;;;;;;;;;;4936781;29;20212;-89
2023/01/03 11:44:28;;;;;;;7.53;5.27;;;;;;;;;;4958578;29;20188;-89
2023/01/03 11:47:54;;;;;;;5.50;4.67;;;;;;;;;;4959611;29;20183;-88
2023/01/03 11:51:27;;;;;;;4.70;4.30;;;;;;;;;;4958375;29;20212;-89
2023/01/03 11:55:02;;;;;;;5.60;4.30;;;;;;;;;;4958669;29;20183;-89
2023/01/03 11:58:42;;;;;;;5.40;4.13;;;;;;;;;;4947788;29;20183;-89
2023/01/03 12:02:33;;;;;;;3.97;3.57;;;;;;;;;;4962856;28;20699;-89
2023/01/03 12:05:49;;;;;;;4.07;3.60;;;;;;;;;;4958138;29;20180;-88
2023/01/03 12:09:12;;;;;;;4.60;3.97;;;;;;;;;;4946965;29;20698;-89
2023/01/03 12:12:33;;;;;;;4.80;3.40;;;;;;;;;;4947384;29;20184;-89
2023/01/03 12:16:02;;;;;;;4.20;3.20;;;;;;;;;;4957782;29;20188;-89
2023/01/03 12:19:06;;;;;;;4.10;3.70;;;;;;;;;;4957641;29;20183;-88
2023/01/03 12:22:35;;;;;;;4.33;3.03;;;;;;;;;;4969379;28;20184;-92
2023/01/03 12:25:44;;;;;;;4.33;3.07;;;;;;;;;;4958864;29;20179;-92
2023/01/03 12:28:55;;;;;;;3.23;2.93;;;;;;;;;;4958752;29;20211;-91
2023/01/03 12:32:05;;;;;;;3.73;2.93;;;;;;;;;;4937033;29;20579;-91
2023/01/03 12:35:17;;;;;;;4.33;3.10;;;;;;;;;;4948530;29;20180;-91
2023/01/03 12:38:28;;;;;;;6.67;3.83;;;;;;;;;;4958322;29;20180;-91
2023/01/03 12:41:41;;;;;;;5.43;3.40;;;;;;;;;;4968839;29;20223;-92
2023/01/03 12:44:48;;;;;;;3.63;3.10;;;;;;;;;;4959099;29;20188;-92
2023/01/03 12:48:01;;;;;;;3.13;2.83;;;;;;;;;;4959130;29;20188;-92
2023/01/03 12:51:05;;;;;;;4.47;3.23;;;;;;;;;;4958614;29;20208;-92
2023/01/03 12:54:28;;;;;;;3.93;3.23;;;;;;;;;;4959401;29;20179;-92
2023/01/03 12:57:38;;;;;;;3.33;3.03;;;;;;;;;;4948540;29;20188;-93
2023/01/03 13:01:04;;;;;;;4.97;3.10;;;;;;;;;;4936487;29;20216;-92
2023/01/03 13:04:20;;;;;;;5.73;2.90;;;;;;;;;;4957984;29;20180;-92
2023/01/03 13:07:30;;;;;;;5.77;2.87;;;;;;;;;;4946700;29;20192;-92
2023/01/03 13:10:37;;;;;;;5.00;3.50;;;;;;;;;;4958371;29;20227;-92
2023/01/03 13:13:51;;;;;;;3.87;2.90;;;;;;;;;;4946597;29;20187;-92
2023/01/03 13:17:05;;;;;;;3.43;3.13;;;;;;;;;;4946806;29;20188;-92
2023/01/03 13:20:28;;;;;;;3.20;2.67;;;;;;;;;;4946537;29;20216;-92
2023/01/03 13:23:35;;;;;;;6.13;4.87;;;;;;;;;;4957420;29;20180;-92
2023/01/03 13:27:24;;;;;;;4.60;4.20;;;;;;;;;;4946079;29;20184;-92
2023/01/03 13:30:32;;;;;;;4.23;3.80;;;;;;;;;;4956486;29;20237;-92
2023/01/03 13:33:56;;;;;;;4.10;3.70;;;;;;;;;;4957411;29;20646;-93
2023/01/03 13:37:07;;;;;;;3.80;2.67;;;;;;;;;;4956635;29;20183;-92
2023/01/03 13:40:26;;;;;;;4.20;3.00;;;;;;;;;;4956987;29;20219;-93
2023/01/03 13:43:33;;;;;;;3.43;3.13;;;;;;;;;;4945169;29;20551;-92
2023/01/03 13:46:39;;;;;;;4.87;3.20;;;;;;;;;;4956889;29;20175;-91
2023/01/03 13:49:47;;;;;;;3.27;2.90;;;;;;;;;;4956873;29;20227;-92
2023/01/03 13:53:17;;;;;;;4.10;3.00;;;;;;;;;;4945470;29;20203;-90
2023/01/03 13:56:24;;;;;;;4.10;3.23;;;;;;;;;;4934561;29;20520;-93
2023/01/03 13:59:41;;;;;;;4.03;3.13;;;;;;;;;;4955933;29;20540;-93
2023/01/03 14:03:25;;;;;;;3.60;3.03;;;;;;;;;;4934602;29;20211;-91
2023/01/03 14:06:57;;;;;;;5.47;3.30;;;;;;;;;;4956080;29;20199;-91
2023/01/03 14:10:32;;;;;;;4.80;3.50;;;;;;;;;;4955669;29;20211;-92
2023/01/03 14:13:40;;;;;;;4.63;3.20;;;;;;;;;;4945460;29;20196;-92
2023/01/03 14:16:48;;;;;;;5.40;3.03;;;;;;;;;;4956026;29;20636;-93
2023/01/03 14:19:56;;;;;;;7.73;6.63;;;;;;;;;;4947000;29;20184;-93
2023/01/03 14:23:05;;;;;;;16.73;14.47;;;;;;;;;;4956070;29;20643;-93
2023/01/03 14:26:16;;;;;;;19.60;15.57;;;;;;;;;;4934829;29;20184;-92
2023/01/03 14:29:23;;;;;;;5.97;5.00;;;;;;;;;;4966992;28;20211;-92
2023/01/03 14:32:29;;;;;;;5.70;3.77;;;;;;;;;;4945062;29;20539;-92
2023/01/03 14:35:40;;;;;;;9.00;4.17;;;;;;;;;;4956182;29;20188;-93
2023/01/03 14:38:54;;;;;;;4.00;3.57;;;;;;;;;;4956349;29;20616;-92
2023/01/03 14:42:04;;;;;;;6.50;4.03;;;;;;;;;;4944574;29;20558;-91
2023/01/03 14:45:15;;;;;;;5.20;4.33;;;;;;;;;;4955425;29;20199;-91
2023/01/03 14:48:21;;;;;;;5.17;4.03;;;;;;;;;;4947269;29;20191;-91
2023/01/03 14:51:30;;;;;;;4.10;3.70;;;;;;;;;;4948313;29;20578;-92
2023/01/03 14:54:36;;;;;;;6.03;4.53;;;;;;;;;;4959470;29;20179;-92
2023/01/03 14:57:42;;;;;;;4.80;4.30;;;;;;;;;;4960906;29;20179;-92
2023/01/03 15:00:49;;;;;;;5.00;4.17;;;;;;;;;;4970783;28;20215;-93
2023/01/03 15:03:54;;;;;;;4.50;4.10;;;;;;;;;;4959587;29;20539;-92
2023/01/03 15:07:02;;;;;;;4.87;4.30;;;;;;;;;;4960381;29;20539;-92
2023/01/03 15:10:16;;;;;;;6.93;4.10;;;;;;;;;;4948689;29;20614;-92
2023/01/03 15:13:25;;;;;;;4.90;3.73;;;;;;;;;;4948844;29;20547;-92
2023/01/03 15:16:33;;;;;;;4.43;3.90;;;;;;;;;;4949276;29;20184;-92
2023/01/03 15:19:49;;;;;;;6.50;3.90;;;;;;;;;;4949482;29;20184;-93
2023/01/03 15:22:54;;;;;;;4.13;3.73;;;;;;;;;;4959890;29;20200;-92
2023/01/03 15:25:58;;;;;;;8.87;4.00;;;;;;;;;;4960019;29;20647;-91
2023/01/03 15:29:16;;;;;;;5.03;4.23;;;;;;;;;;4961087;29;20183;-91
2023/01/03 15:32:20;;;;;;;4.33;3.37;;;;;;;;;;4949892;29;20188;-91
2023/01/03 15:35:32;;;;;;;6.03;3.57;;;;;;;;;;4949798;29;20207;-91
2023/01/03 15:38:38;;;;;;;3.87;3.20;;;;;;;;;;4971909;28;20184;-91
2023/01/03 15:45:22;;;;;;;5.10;3.97;;;;;;;;;;4966501;29;20188;-91
2023/01/03 15:48:28;;;;;;;4.47;4.07;;;;;;;;;;4966640;29;20599;-91
2023/01/03 15:51:33;;;;;;;7.50;4.20;;;;;;;;;;4956074;29;20235;-92
2023/01/03 15:54:38;;;;;;;7.03;4.10;;;;;;;;;;4955629;29;20199;-91
2023/01/03 15:57:52;;;;;;;4.90;4.40;;;;;;;;;;4967171;29;20203;-92
2023/01/03 16:00:59;;;;;;;6.27;4.10;;;;;;;;;;4977885;28;20219;-91
2023/01/03 16:04:04;;;;;;;4.80;4.30;;;;;;;;;;4954322;29;20184;-92
2023/01/03 16:07:09;;;;;;;5.07;4.43;;;;;;;;;;4965221;29;20183;-91
2023/01/03 16:10:14;;;;;;;7.73;5.33;;;;;;;;;;4965744;29;20227;-92
2023/01/03 16:13:20;;;;;;;6.17;4.60;;;;;;;;;;4963875;29;20543;-90
2023/01/03 16:16:27;;;;;;;6.93;4.60;;;;;;;;;;4953673;29;20180;-91
2023/01/03 16:19:33;;;;;;;5.73;5.03;;;;;;;;;;4950942;29;20188;-92
2023/01/03 16:22:37;;;;;;;6.20;5.17;;;;;;;;;;4962290;29;20183;-92
2023/01/03 16:25:41;;;;;;;5.63;4.80;;;;;;;;;;4950916;29;20183;-92
2023/01/03 16:28:45;;;;;;;6.33;4.80;;;;;;;;;;4961000;29;20187;-92
2023/01/03 16:31:50;;;;;;;5.57;4.83;;;;;;;;;;4950080;29;20231;-91
2023/01/03 16:35:01;;;;;;;7.03;4.70;;;;;;;;;;4971705;28;20189;-92
2023/01/03 16:38:12;;;;;;;6.10;4.90;;;;;;;;;;4949151;29;20636;-91
2023/01/03 16:41:16;;;;;;;7.07;5.10;;;;;;;;;;4948970;29;20572;-92
2023/01/03 16:44:20;;;;;;;8.43;5.27;;;;;;;;;;4960901;29;20635;-91
2023/01/03 16:47:30;;;;;;;7.73;5.63;;;;;;;;;;4961007;29;20188;-91
2023/01/03 16:50:38;;;;;;;7.07;5.93;;;;;;;;;;4948197;29;20231;-92
2023/01/03 16:53:42;;;;;;;7.47;5.90;;;;;;;;;;4959485;29;20199;-92
2023/01/03 16:56:47;;;;;;;8.13;6.60;;;;;;;;;;4958716;29;20180;-92
2023/01/03 16:59:51;;;;;;;9.17;6.57;;;;;;;;;;4970552;28;20187;-91
2023/01/03 17:02:58;;;;;;;9.47;7.00;;;;;;;;;;4969743;28;20192;-91
2023/01/03 17:06:03;;;;;;;7.40;5.50;;;;;;;;;;4948618;29;20208;-91
2023/01/03 17:09:17;;;;;;;8.93;6.23;;;;;;;;;;4958507;29;20204;-91
2023/01/03 17:12:23;;;;;;;7.47;6.20;;;;;;;;;;4947183;29;20635;-91
2023/01/03 17:15:28;;;;;;;7.17;6.10;;;;;;;;;;4958428;29;20180;-91
2023/01/03 17:18:39;;;;;;;9.17;5.87;;;;;;;;;;4958662;29;20184;-92
2023/01/03 17:21:43;;;;;;;7.87;6.43;;;;;;;;;;4958101;29;20212;-91
2023/01/03 17:24:49;;;;;;;7.03;6.03;;;;;;;;;;4957735;29;20211;-91
2023/01/03 17:27:58;;;;;;;9.87;5.53;;;;;;;;;;4958024;29;20623;-91
2023/01/03 17:31:03;;;;;;;7.43;5.40;;;;;;;;;;4957495;29;20227;-92
2023/01/03 17:34:25;;;;;;;9.20;6.07;;;;;;;;;;4968825;28;20183;-91
2023/01/03 17:37:29;;;;;;;8.67;6.63;;;;;;;;;;4946478;29;20187;-91
2023/01/03 17:40:34;;;;;;;9.47;5.63;;;;;;;;;;4957045;29;20211;-91
2023/01/03 17:43:38;;;;;;;10.77;5.33;;;;;;;;;;4957249;29;20207;-91
2023/01/03 17:50:08;;;;;;;7.70;6.00;;;;;;;;;;4968514;28;20223;-91
2023/01/03 17:53:15;;;;;;;6.03;5.43;;;;;;;;;;4957545;29;20199;-92
2023/01/03 17:56:19;;;;;;;7.70;6.07;;;;;;;;;;4945915;29;20195;-91
2023/01/03 17:59:24;;;;;;;10.43;6.27;;;;;;;;;;4957206;29;20640;-91
2023/01/03 18:02:28;;;;;;;7.00;5.50;;;;;;;;;;4957076;29;20171;-92
2023/01/03 18:05:32;;;;;;;7.40;6.23;;;;;;;;;;4946004;29;20639;-91
2023/01/03 18:08:37;;;;;;;8.60;6.07;;;;;;;;;;4945922;29;20184;-92
2023/01/03 18:11:41;;;;;;;8.27;6.50;;;;;;;;;;4956749;29;20227;-91
2023/01/03 18:14:46;;;;;;;7.77;5.60;;;;;;;;;;4945620;29;20203;-91
2023/01/03 18:17:51;;;;;;;11.93;7.23;;;;;;;;;;4956424;29;20207;-90
2023/01/03 18:20:56;;;;;;;9.17;6.37;;;;;;;;;;4956504;28;20218;-91
2023/01/03 18:24:20;;;;;;;11.77;6.73;;;;;;;;;;4945252;29;20180;-91
2023/01/03 18:27:26;;;;;;;9.23;5.60;;;;;;;;;;4956871;29;20188;-91
2023/01/03 18:30:30;;;;;;;7.40;6.07;;;;;;;;;;4944956;29;20686;-91
2023/01/03 18:33:35;;;;;;;7.37;5.87;;;;;;;;;;4955985;29;20183;-91
2023/01/03 18:36:49;;;;;;;9.13;6.13;;;;;;;;;;4946464;29;20179;-91
2023/01/03 18:39:54;;;;;;;7.17;5.70;;;;;;;;;;4946242;29;20185;-91
2023/01/03 18:43:12;;;;;;;7.33;5.60;;;;;;;;;;4946088;29;20584;-91
2023/01/03 18:46:17;;;;;;;7.83;6.13;;;;;;;;;;4957466;29;20188;-91
2023/01/03 18:49:22;;;;;;;8.67;6.07;;;;;;;;;;4946168;29;20180;-91
2023/01/03 18:52:35;;;;;;;9.03;6.30;;;;;;;;;;4945552;29;20690;-91
2023/01/03 18:55:39;;;;;;;8.27;5.93;;;;;;;;;;4956399;29;20179;-91
2023/01/03 18:58:43;;;;;;;7.83;6.13;;;;;;;;;;4956582;29;20183;-91
2023/01/03 19:01:47;;;;;;;7.77;6.27;;;;;;;;;;4956402;29;20549;-91
2023/01/03 19:04:51;;;;;;;8.47;5.77;;;;;;;;;;4946282;29;20192;-91
2023/01/03 19:07:57;;;;;;;8.33;6.37;;;;;;;;;;4957486;29;20187;-91
2023/01/03 19:11:07;;;;;;;10.40;7.70;;;;;;;;;;4955635;29;20567;-92
2023/01/03 19:14:12;;;;;;;8.23;5.93;;;;;;;;;;4944726;29;20188;-91
2023/01/03 19:17:18;;;;;;;6.87;5.73;;;;;;;;;;4955670;29;20558;-91
2023/01/03 19:20:22;;;;;;;7.87;5.53;;;;;;;;;;4933847;29;20215;-91
2023/01/03 19:23:27;;;;;;;8.13;6.03;;;;;;;;;;4945363;29;20179;-91
2023/01/03 19:26:37;;;;;;;12.03;9.57;;;;;;;;;;4956123;29;20551;-90
2023/01/03 19:29:42;;;;;;;14.47;9.63;;;;;;;;;;4955103;29;20179;-90
2023/01/03 19:32:51;;;;;;;11.17;8.93;;;;;;;;;;4944919;28;20212;-91
2023/01/03 19:35:56;;;;;;;15.27;10.37;;;;;;;;;;4970498;28;20203;-90
2023/01/03 19:39:00;;;;;;;15.23;10.10;;;;;;;;;;4936802;29;20188;-90
2023/01/03 19:45:40;;;;;;;11.67;8.67;;;;;;;;;;4958763;29;20184;-90
2023/01/03 19:48:44;;;;;;;12.40;8.63;;;;;;;;;;4958890;29;20547;-90
2023/01/03 19:51:48;;;;;;;10.20;7.57;;;;;;;;;;4948273;29;20227;-91
2023/01/03 19:54:52;;;;;;;11.80;7.77;;;;;;;;;;4947667;29;20203;-90
2023/01/03 19:58:00;;;;;;;17.43;8.07;;;;;;;;;;4947907;29;20180;-90
2023/01/03 20:01:04;;;;;;;13.93;7.20;;;;;;;;;;4946924;29;20618;-90
2023/01/03 20:04:12;;;;;;;9.27;6.27;;;;;;;;;;4947093;29;20606;-90
2023/01/03 20:07:17;;;;;;;9.53;7.33;;;;;;;;;;4947229;29;20544;-90